createdAt,value
2024-01-20T00:00:03.923Z,19.27
2024-01-20T00:02:30.615Z,17.53
2024-01-20T00:04:57.610Z,15.77
2024-01-20T00:07:24.633Z,14.47
2024-01-20T00:09:52.658Z,14.70
2024-01-20T00:12:19.690Z,15.53
2024-01-20T00:14:47.209Z,17.03
2024-01-20T00:17:23.521Z,15.53
2024-01-20T00:19:54.502Z,14.43
2024-01-20T00:22:23.577Z,14.17
2024-01-20T00:24:50.808Z,13.87
2024-01-20T00:27:18.309Z,14.93
2024-01-20T00:29:46.266Z,14.20
2024-01-20T00:32:14.006Z,13.77
2024-01-20T00:34:51.521Z,13.67
2024-01-20T00:37:27.192Z,13.33
2024-01-20T00:39:54.096Z,17.07
2024-01-20T00:42:20.940Z,23.47
2024-01-20T00:44:47.639Z,13.60
2024-01-20T00:47:14.679Z,12.47
2024-01-20T00:49:41.679Z,11.53
2024-01-20T00:52:08.384Z,12.80
2024-01-20T00:54:35.489Z,12.60
2024-01-20T00:57:02.414Z,11.30
2024-01-20T00:59:29.090Z,12.13
2024-01-20T01:01:56.176Z,12.03
2024-01-20T01:04:22.880Z,11.77
2024-01-20T01:06:50.321Z,12.80
2024-01-20T01:09:17.192Z,13.17
2024-01-20T01:11:43.936Z,13.30
2024-01-20T01:14:10.965Z,12.13
2024-01-20T01:16:37.807Z,13.73
2024-01-20T01:19:04.918Z,13.60
2024-01-20T01:21:31.591Z,13.27
2024-01-20T01:23:58.539Z,11.57
2024-01-20T01:26:28.421Z,14.10
2024-01-20T01:28:56.263Z,13.00
2024-01-20T01:31:23.020Z,12.37
2024-01-20T01:33:49.980Z,12.97
2024-01-20T01:36:16.972Z,11.83
2024-01-20T01:38:43.702Z,14.30
2024-01-20T01:41:10.490Z,14.63
2024-01-20T01:43:37.281Z,13.00
2024-01-20T01:46:04.455Z,12.90
2024-01-20T01:48:31.810Z,13.87
2024-01-20T01:50:58.934Z,12.70
2024-01-20T01:53:25.947Z,14.57
2024-01-20T01:55:53.008Z,12.90
2024-01-20T01:58:20.084Z,13.60
2024-01-20T02:00:48.286Z,12.53
2024-01-20T02:03:15.358Z,13.13
2024-01-20T02:05:42.046Z,13.07
2024-01-20T02:08:09.177Z,12.43
2024-01-20T02:10:36.364Z,13.10
2024-01-20T02:13:03.421Z,13.33
2024-01-20T02:15:31.068Z,12.23
2024-01-20T02:17:57.954Z,13.73
2024-01-20T02:20:25.476Z,13.23
2024-01-20T02:22:58.519Z,12.87
2024-01-20T02:25:25.381Z,11.53
2024-01-20T02:27:52.160Z,12.27
2024-01-20T02:30:18.987Z,12.07
2024-01-20T02:32:45.998Z,12.10
2024-01-20T02:35:12.852Z,12.97
2024-01-20T02:37:39.700Z,13.07
2024-01-20T02:40:06.730Z,11.93
2024-01-20T02:42:33.574Z,12.20
2024-01-20T02:45:00.518Z,12.60
2024-01-20T02:47:27.486Z,13.20
2024-01-20T02:49:55.374Z,12.07
2024-01-20T02:52:22.277Z,13.30
2024-01-20T02:54:49.043Z,13.67
2024-01-20T02:57:15.921Z,12.10
2024-01-20T02:59:42.708Z,12.60
2024-01-20T03:02:10.089Z,11.90
2024-01-20T03:04:37.038Z,12.10
2024-01-20T03:07:03.946Z,13.30
2024-01-20T03:09:30.807Z,13.43
2024-01-20T03:11:57.648Z,10.80
2024-01-20T03:14:24.374Z,11.10
2024-01-20T03:16:51.168Z,12.83
2024-01-20T03:19:18.091Z,12.70
2024-01-20T03:21:44.728Z,10.83
2024-01-20T03:24:11.768Z,11.60
2024-01-20T03:26:38.535Z,10.63
2024-01-20T03:29:05.915Z,10.70
2024-01-20T03:31:32.684Z,11.57
2024-01-20T03:33:59.529Z,12.13
2024-01-20T03:36:26.348Z,12.00
2024-01-20T03:38:53.442Z,12.00
2024-01-20T03:41:20.166Z,11.77
2024-01-20T03:43:47.154Z,11.07
2024-01-20T03:46:13.858Z,10.70
2024-01-20T03:48:40.982Z,11.57
2024-01-20T03:51:07.984Z,10.90
2024-01-20T03:53:34.716Z,10.30
2024-01-20T03:56:04.442Z,10.00
2024-01-20T03:58:31.169Z,10.37
2024-01-20T04:00:58.644Z,9.90
2024-01-20T04:03:25.535Z,9.93
2024-01-20T04:05:52.324Z,10.50
2024-01-20T04:08:19.112Z,10.13
2024-01-20T04:10:45.900Z,10.03
2024-01-20T04:13:12.599Z,10.93
2024-01-20T04:15:39.368Z,9.83
2024-01-20T04:18:06.422Z,9.60
2024-01-20T04:20:33.293Z,9.53
2024-01-20T04:22:59.979Z,9.17
2024-01-20T04:25:26.632Z,10.73
2024-01-20T04:27:53.648Z,8.90
2024-01-20T04:30:20.430Z,9.30
2024-01-20T04:32:49.875Z,8.97
2024-01-20T04:35:16.770Z,9.87
2024-01-20T04:37:43.639Z,8.27
2024-01-20T04:40:10.490Z,9.20
2024-01-20T04:42:37.301Z,9.23
2024-01-20T04:45:05.582Z,8.63
2024-01-20T04:47:32.583Z,7.87
2024-01-20T04:49:59.430Z,8.00
2024-01-20T04:52:26.276Z,8.07
2024-01-20T04:54:55.835Z,7.90
2024-01-20T04:57:22.845Z,7.37
2024-01-20T04:59:49.661Z,7.83
2024-01-20T05:02:16.304Z,9.90
2024-01-20T05:04:43.551Z,8.53
2024-01-20T05:07:10.617Z,8.27
2024-01-20T05:09:37.665Z,8.07
2024-01-20T05:12:04.554Z,8.57
2024-01-20T05:14:31.353Z,9.87
2024-01-20T05:16:58.107Z,7.87
2024-01-20T05:19:25.237Z,8.10
2024-01-20T05:21:52.069Z,8.37
2024-01-20T05:24:18.861Z,9.30
2024-01-20T05:26:45.708Z,7.87
2024-01-20T05:29:12.431Z,8.73
2024-01-20T05:31:39.229Z,9.03
2024-01-20T05:34:06.158Z,8.17
2024-01-20T05:36:33.212Z,10.10
2024-01-20T05:39:00.097Z,8.53
2024-01-20T05:41:26.884Z,8.80
2024-01-20T05:43:53.674Z,9.67
2024-01-20T05:46:21.442Z,9.57
2024-01-20T05:48:48.959Z,10.43
2024-01-20T05:51:15.737Z,10.43
2024-01-20T05:53:42.558Z,9.93
2024-01-20T05:56:09.282Z,10.50
2024-01-20T05:58:35.982Z,9.47
2024-01-20T06:01:02.833Z,8.73
2024-01-20T06:03:29.818Z,8.87
2024-01-20T06:05:57.322Z,9.77
2024-01-20T06:08:24.122Z,10.10
2024-01-20T06:10:51.724Z,9.90
2024-01-20T06:13:18.751Z,8.40
2024-01-20T06:15:45.599Z,8.77
2024-01-20T06:18:12.440Z,10.10
2024-01-20T06:20:39.356Z,9.13
2024-01-20T06:23:06.093Z,9.27
2024-01-20T06:25:32.960Z,9.50
2024-01-20T06:27:59.608Z,9.97
2024-01-20T06:30:26.378Z,9.33
2024-01-20T06:32:53.215Z,10.20
2024-01-20T06:35:19.982Z,8.27
2024-01-20T06:37:48.358Z,10.27
2024-01-20T06:40:15.088Z,9.67
2024-01-20T06:42:41.846Z,10.50
2024-01-20T06:45:08.868Z,9.77
2024-01-20T06:47:35.854Z,10.83
2024-01-20T06:50:03.350Z,9.63
2024-01-20T06:52:32.655Z,9.47
2024-01-20T06:54:59.485Z,9.07
2024-01-20T06:57:26.324Z,8.83
2024-01-20T06:59:53.124Z,9.07
2024-01-20T07:02:19.803Z,8.27
2024-01-20T07:04:46.494Z,8.53
2024-01-20T07:07:13.622Z,8.13
2024-01-20T07:09:43.863Z,9.30
2024-01-20T07:12:10.826Z,9.97
2024-01-20T07:14:37.593Z,9.37
2024-01-20T07:17:06.652Z,8.57
2024-01-20T07:19:33.613Z,10.47
2024-01-20T07:22:00.510Z,11.07
2024-01-20T07:24:29.271Z,11.40
2024-01-20T07:26:56.516Z,9.53
2024-01-20T07:29:24.052Z,9.33
2024-01-20T07:31:51.753Z,11.20
2024-01-20T07:34:18.754Z,10.33
2024-01-20T07:36:48.723Z,11.40
2024-01-20T07:39:15.684Z,12.37
2024-01-20T07:41:42.389Z,11.40
2024-01-20T07:44:09.257Z,8.70
2024-01-20T07:46:36.090Z,11.03
2024-01-20T07:49:02.908Z,11.20
2024-01-20T07:51:29.813Z,10.97
2024-01-20T07:53:56.615Z,9.40
2024-01-20T07:56:23.555Z,10.17
2024-01-20T07:58:50.625Z,10.47
2024-01-20T08:01:18.803Z,10.30
2024-01-20T08:03:48.565Z,9.43
2024-01-20T08:06:15.559Z,10.60
2024-01-20T08:08:43.805Z,9.93
2024-01-20T08:11:10.768Z,8.37
2024-01-20T08:13:37.494Z,10.07
2024-01-20T08:16:04.358Z,10.87
2024-01-20T08:18:32.284Z,10.47
2024-01-20T08:20:59.064Z,9.27
2024-01-20T08:23:25.879Z,8.90
2024-01-20T08:25:52.697Z,8.27
2024-01-20T08:28:19.578Z,9.43
2024-01-20T08:30:46.575Z,9.93
2024-01-20T08:33:13.355Z,10.20
2024-01-20T08:35:40.322Z,8.13
2024-01-20T08:38:07.028Z,10.10
2024-01-20T08:40:33.782Z,9.93
2024-01-20T08:43:00.582Z,9.63
2024-01-20T08:45:27.382Z,8.87
2024-01-20T08:47:54.230Z,10.10
2024-01-20T08:50:20.931Z,7.13
2024-01-20T08:52:47.999Z,9.17
2024-01-20T08:55:15.270Z,8.93
2024-01-20T08:57:42.050Z,9.20
2024-01-20T09:00:11.227Z,8.43
2024-01-20T09:02:38.015Z,9.00
2024-01-20T09:05:04.854Z,7.73
2024-01-20T09:07:31.733Z,10.40
2024-01-20T09:09:59.729Z,7.87
2024-01-20T09:12:26.737Z,7.13
2024-01-20T09:14:54.288Z,8.43
2024-01-20T09:17:21.218Z,8.73
2024-01-20T09:19:48.190Z,9.90
2024-01-20T09:22:15.240Z,9.60
2024-01-20T09:24:42.136Z,8.50
2024-01-20T09:27:09.062Z,8.47
2024-01-20T09:29:37.137Z,9.53
2024-01-20T09:32:04.960Z,8.17
2024-01-20T09:34:32.071Z,8.40
2024-01-20T09:36:58.831Z,7.83
2024-01-20T09:39:25.897Z,8.63
2024-01-20T09:41:52.815Z,7.43
2024-01-20T09:44:19.764Z,7.70
2024-01-20T09:46:46.499Z,8.73
2024-01-20T09:49:14.061Z,6.87
2024-01-20T09:51:46.752Z,7.60
2024-01-20T09:54:15.255Z,8.63
2024-01-20T09:56:42.369Z,8.00
2024-01-20T09:59:09.511Z,6.10
2024-01-20T10:01:37.213Z,8.67
2024-01-20T10:04:05.455Z,7.43
2024-01-20T10:06:33.585Z,6.80
2024-01-20T10:09:00.421Z,8.03
2024-01-20T10:11:27.487Z,7.47
2024-01-20T10:13:54.405Z,6.60
2024-01-20T10:16:22.240Z,7.30
2024-01-20T10:18:50.152Z,7.93
2024-01-20T10:21:16.949Z,9.17
2024-01-20T10:23:43.945Z,10.03
2024-01-20T10:26:10.924Z,7.23
2024-01-20T10:28:37.667Z,9.80
2024-01-20T10:31:10.635Z,9.60
2024-01-20T10:33:38.752Z,8.37
2024-01-20T10:36:06.347Z,9.20
2024-01-20T10:38:38.126Z,10.27
2024-01-20T10:41:06.746Z,12.93
2024-01-20T10:43:41.362Z,8.17
2024-01-20T10:46:37.842Z,9.90
2024-01-20T10:49:06.325Z,9.33
2024-01-20T10:51:34.904Z,7.87
2024-01-20T10:54:02.788Z,10.67
2024-01-20T10:56:30.569Z,10.00
2024-01-20T10:59:09.752Z,8.57
2024-01-20T11:01:40.106Z,9.33
2024-01-20T11:04:07.896Z,8.10
2024-01-20T11:06:36.273Z,8.40
2024-01-20T11:09:03.914Z,7.90
2024-01-20T11:11:36.579Z,6.53
2024-01-20T11:14:03.824Z,8.83
2024-01-20T11:16:34.337Z,7.47
2024-01-20T11:19:11.162Z,10.53
2024-01-20T11:21:38.481Z,8.00
2024-01-20T11:24:08.799Z,8.10
2024-01-20T11:26:36.785Z,7.43
2024-01-20T11:29:05.786Z,7.37
2024-01-20T11:31:33.173Z,8.53
2024-01-20T11:34:04.299Z,8.07
2024-01-20T11:36:32.197Z,11.80
2024-01-20T11:38:59.508Z,9.67
2024-01-20T11:41:26.431Z,8.63
2024-01-20T11:43:53.405Z,7.10
2024-01-20T11:46:20.732Z,8.03
2024-01-20T11:48:50.894Z,9.23
2024-01-20T11:51:18.147Z,8.17
2024-01-20T11:53:45.228Z,8.57
2024-01-20T11:56:12.330Z,8.47
2024-01-20T11:58:39.140Z,9.17
2024-01-20T12:01:06.968Z,8.43
2024-01-20T12:03:33.986Z,7.50
2024-01-20T12:06:11.600Z,7.30
2024-01-20T12:08:42.645Z,8.40
2024-01-20T12:11:17.491Z,8.33
2024-01-20T12:13:45.621Z,8.37
2024-01-20T12:16:12.389Z,8.47
2024-01-20T12:18:39.566Z,10.53
2024-01-20T12:21:07.193Z,7.37
2024-01-20T12:23:36.427Z,8.53
2024-01-20T12:26:03.143Z,8.17
2024-01-20T12:28:30.008Z,10.03
2024-01-20T12:30:56.906Z,8.03
2024-01-20T12:33:23.907Z,8.70
2024-01-20T12:35:50.802Z,9.10
2024-01-20T12:38:17.620Z,7.60
2024-01-20T12:40:44.537Z,7.27
2024-01-20T12:43:12.445Z,9.70
2024-01-20T12:45:40.449Z,8.50
2024-01-20T12:48:07.573Z,8.03
2024-01-20T12:50:34.310Z,7.73
2024-01-20T12:53:01.444Z,7.60
2024-01-20T12:55:28.406Z,7.83
2024-01-20T12:57:55.150Z,7.47
2024-01-20T13:00:23.206Z,7.70
2024-01-20T13:02:50.013Z,7.63
2024-01-20T13:05:17.060Z,7.93
2024-01-20T13:07:44.122Z,6.83
2024-01-20T13:10:10.878Z,7.13
2024-01-20T13:12:37.761Z,7.20
2024-01-20T13:15:05.923Z,6.17
2024-01-20T13:17:32.858Z,6.73
2024-01-20T13:19:59.737Z,6.43
2024-01-20T13:22:28.016Z,7.60
2024-01-20T13:24:55.213Z,6.40
2024-01-20T13:27:22.090Z,7.47
2024-01-20T13:29:48.979Z,7.73
2024-01-20T13:32:16.040Z,7.30
2024-01-20T13:34:43.080Z,8.10
2024-01-20T13:37:10.148Z,7.70
2024-01-20T13:39:37.128Z,6.87
2024-01-20T13:42:04.242Z,7.87
2024-01-20T13:44:31.025Z,7.20
2024-01-20T13:46:58.108Z,8.10
2024-01-20T13:49:25.068Z,8.80
2024-01-20T13:51:52.160Z,7.63
2024-01-20T13:54:18.989Z,11.40
2024-01-20T13:56:45.895Z,9.53
2024-01-20T13:59:12.595Z,8.70
2024-01-20T14:01:39.414Z,9.50
2024-01-20T14:04:06.398Z,9.23
2024-01-20T14:06:33.209Z,9.47
2024-01-20T14:09:00.006Z,9.30
2024-01-20T14:11:27.894Z,7.97
2024-01-20T14:13:54.809Z,8.50
2024-01-20T14:16:21.718Z,8.07
2024-01-20T14:18:50.918Z,7.63
2024-01-20T14:21:17.772Z,9.13
2024-01-20T14:23:44.550Z,9.40
2024-01-20T14:26:11.771Z,9.93
2024-01-20T14:28:38.568Z,8.70
2024-01-20T14:31:05.576Z,8.37
2024-01-20T14:33:32.602Z,7.97
2024-01-20T14:35:59.381Z,7.90
2024-01-20T14:38:26.432Z,8.27
2024-01-20T14:40:53.113Z,8.53
2024-01-20T14:43:20.151Z,8.83
2024-01-20T14:45:47.127Z,8.10
2024-01-20T14:48:13.998Z,9.87
2024-01-20T14:50:40.905Z,9.30
2024-01-20T14:53:08.245Z,10.03
2024-01-20T14:55:35.149Z,10.03
2024-01-20T14:58:01.884Z,11.07
2024-01-20T15:00:28.911Z,8.97
2024-01-20T15:02:55.727Z,8.80
2024-01-20T15:05:22.432Z,8.90
2024-01-20T15:07:49.755Z,9.17
2024-01-20T15:10:16.736Z,8.53
2024-01-20T15:12:43.459Z,8.50
2024-01-20T15:15:10.613Z,6.30
2024-01-20T15:17:37.529Z,6.97
2024-01-20T15:20:05.391Z,9.07
2024-01-20T15:22:32.070Z,7.57
2024-01-20T15:24:59.007Z,6.47
2024-01-20T15:27:25.762Z,7.43
2024-01-20T15:29:52.987Z,8.40
2024-01-20T15:32:19.750Z,8.87
2024-01-20T15:34:46.563Z,9.87
2024-01-20T15:37:13.593Z,7.53
2024-01-20T15:39:40.430Z,8.67
2024-01-20T15:42:07.420Z,6.90
2024-01-20T15:44:34.238Z,7.80
2024-01-20T15:47:00.934Z,9.47
2024-01-20T15:49:27.892Z,6.77
2024-01-20T15:51:54.725Z,7.40
2024-01-20T15:54:21.443Z,8.27
2024-01-20T15:56:48.346Z,8.07
2024-01-20T15:59:14.979Z,6.90
2024-01-20T16:01:42.032Z,7.03
2024-01-20T16:04:09.189Z,7.07
2024-01-20T16:06:36.246Z,7.20
2024-01-20T16:09:03.193Z,7.30
2024-01-20T16:11:29.984Z,7.20
2024-01-20T16:13:56.875Z,7.57
2024-01-20T16:16:23.600Z,6.47
2024-01-20T16:18:50.592Z,7.87
2024-01-20T16:21:23.903Z,7.50
2024-01-20T16:23:54.091Z,7.57
2024-01-20T16:26:22.465Z,7.50
2024-01-20T16:28:50.423Z,7.57
2024-01-20T16:31:17.650Z,7.03
2024-01-20T16:33:46.584Z,6.33
2024-01-20T16:36:22.520Z,9.43
2024-01-20T16:38:49.458Z,7.00
2024-01-20T16:41:16.687Z,7.37
2024-01-20T16:43:43.457Z,7.37
2024-01-20T16:46:11.336Z,8.47
2024-01-20T16:48:38.388Z,8.90
2024-01-20T16:51:12.883Z,7.37
2024-01-20T16:53:44.963Z,6.83
2024-01-20T16:56:11.823Z,8.97
2024-01-20T16:58:38.569Z,7.53
2024-01-20T17:01:05.610Z,8.33
2024-01-20T17:03:32.737Z,7.77
2024-01-20T17:05:59.481Z,7.67
2024-01-20T17:08:26.334Z,6.80
2024-01-20T17:10:53.032Z,7.40
2024-01-20T17:13:20.073Z,8.50
2024-01-20T17:15:46.880Z,7.70
2024-01-20T17:18:14.082Z,8.20
2024-01-20T17:20:40.963Z,8.40
2024-01-20T17:23:07.824Z,7.50
2024-01-20T17:25:34.531Z,7.63
2024-01-20T17:28:01.403Z,6.50
2024-01-20T17:30:28.122Z,8.03
2024-01-20T17:32:55.112Z,8.40
2024-01-20T17:35:22.472Z,7.13
2024-01-20T17:37:49.172Z,7.97
2024-01-20T17:40:17.851Z,7.37
2024-01-20T17:42:47.573Z,9.00
2024-01-20T17:45:15.905Z,9.03
2024-01-20T17:47:45.883Z,8.80
2024-01-20T17:50:12.963Z,8.90
2024-01-20T17:52:39.845Z,8.83
2024-01-20T17:55:06.813Z,8.13
2024-01-20T17:57:33.552Z,8.97
2024-01-20T18:00:00.406Z,9.63
2024-01-20T18:02:27.107Z,9.13
2024-01-20T18:04:54.220Z,10.03
2024-01-20T18:07:21.111Z,8.77
2024-01-20T18:09:48.958Z,8.10
2024-01-20T18:12:15.650Z,10.07
2024-01-20T18:14:42.710Z,10.27
2024-01-20T18:17:10.124Z,10.20
2024-01-20T18:19:36.894Z,10.50
2024-01-20T18:22:03.901Z,9.00
2024-01-20T18:24:30.650Z,10.30
2024-01-20T18:26:57.638Z,10.07
2024-01-20T18:29:24.390Z,11.30
2024-01-20T18:31:51.472Z,12.13
2024-01-20T18:34:18.336Z,13.70
2024-01-20T18:36:45.680Z,12.10
2024-01-20T18:39:12.531Z,13.00
2024-01-20T18:41:39.239Z,12.30
2024-01-20T18:44:06.112Z,12.43
2024-01-20T18:46:32.908Z,10.63
2024-01-20T18:48:59.768Z,10.83
2024-01-20T18:51:26.497Z,10.83
2024-01-20T18:53:53.266Z,12.00
2024-01-20T18:56:20.082Z,10.83
2024-01-20T18:58:46.946Z,9.93
2024-01-20T19:01:14.132Z,10.50
2024-01-20T19:03:41.874Z,10.43
2024-01-20T19:06:08.869Z,12.43
2024-01-20T19:08:37.279Z,11.67
2024-01-20T19:11:08.557Z,13.43
2024-01-20T19:13:35.601Z,11.40
2024-01-20T19:16:03.411Z,12.23
2024-01-20T19:18:30.571Z,11.97
2024-01-20T19:20:57.338Z,11.77
2024-01-20T19:23:24.027Z,12.23
2024-01-20T19:25:50.880Z,12.90
2024-01-20T19:28:17.817Z,11.63
2024-01-20T19:30:44.731Z,14.00
2024-01-20T19:33:12.601Z,12.50
2024-01-20T19:35:39.393Z,12.93
2024-01-20T19:38:06.263Z,11.77
2024-01-20T19:40:33.074Z,12.20
2024-01-20T19:42:59.933Z,12.57
2024-01-20T19:45:26.651Z,11.93
2024-01-20T19:47:53.489Z,13.33
2024-01-20T19:50:20.479Z,13.40
2024-01-20T19:52:50.537Z,12.43
2024-01-20T19:55:17.781Z,11.83
2024-01-20T19:57:44.506Z,13.30
2024-01-20T20:00:11.745Z,13.43
2024-01-20T20:02:38.698Z,13.77
2024-01-20T20:05:05.637Z,13.07
2024-01-20T20:07:32.589Z,14.20
2024-01-20T20:09:59.373Z,13.43
2024-01-20T20:12:26.122Z,13.53
2024-01-20T20:14:53.139Z,12.43
2024-01-20T20:17:19.916Z,12.60
2024-01-20T20:19:47.253Z,13.30
2024-01-20T20:22:14.127Z,12.60
2024-01-20T20:24:44.177Z,13.90
2024-01-20T20:27:11.802Z,13.17
2024-01-20T20:29:38.690Z,13.30
2024-01-20T20:32:05.611Z,13.60
2024-01-20T20:34:32.407Z,13.80
2024-01-20T20:36:59.370Z,12.80
2024-01-20T20:39:26.161Z,13.77
2024-01-20T20:41:55.764Z,14.43
2024-01-20T20:44:22.555Z,14.53
2024-01-20T20:46:49.510Z,14.10
2024-01-20T20:49:16.633Z,14.63
2024-01-20T20:51:43.853Z,13.80
2024-01-20T20:54:11.484Z,14.37
2024-01-20T20:56:38.236Z,13.77
2024-01-20T20:59:04.988Z,16.60
2024-01-20T21:01:33.079Z,14.20
2024-01-20T21:04:04.195Z,13.10
2024-01-20T21:06:33.127Z,14.10
2024-01-20T21:08:59.917Z,11.70
2024-01-20T21:11:26.586Z,13.83
2024-01-20T21:13:53.378Z,12.33
2024-01-20T21:16:20.136Z,15.13
2024-01-20T21:18:47.030Z,14.40
2024-01-20T21:21:14.785Z,13.13
2024-01-20T21:23:45.141Z,13.33
2024-01-20T21:26:11.884Z,14.00
2024-01-20T21:28:38.546Z,13.70
2024-01-20T21:31:07.366Z,12.87
2024-01-20T21:33:34.233Z,13.93
2024-01-20T21:36:02.095Z,13.10
2024-01-20T21:38:28.977Z,15.13
2024-01-20T21:40:55.854Z,12.97
2024-01-20T21:43:22.651Z,13.17
2024-01-20T21:45:49.496Z,13.67
2024-01-20T21:48:16.409Z,12.97
2024-01-20T21:50:44.460Z,15.80
2024-01-20T21:53:11.547Z,17.37
2024-01-20T21:55:38.387Z,13.07
2024-01-20T21:58:05.073Z,15.67
2024-01-20T22:00:31.973Z,14.50
2024-01-20T22:02:58.917Z,13.53
2024-01-20T22:05:25.890Z,14.77
2024-01-20T22:07:55.046Z,13.87
2024-01-20T22:10:21.821Z,14.90
2024-01-20T22:12:48.560Z,13.90
2024-01-20T22:15:15.668Z,13.93
2024-01-20T22:17:42.506Z,13.23
2024-01-20T22:20:09.826Z,14.43
2024-01-20T22:22:36.975Z,15.73
2024-01-20T22:25:03.818Z,13.40
2024-01-20T22:27:30.676Z,13.70
2024-01-20T22:29:57.545Z,15.17
2024-01-20T22:32:24.533Z,14.50
2024-01-20T22:34:51.398Z,13.07
2024-01-20T22:37:18.202Z,14.80
2024-01-20T22:39:45.105Z,13.40
2024-01-20T22:42:12.466Z,14.17
2024-01-20T22:44:39.289Z,15.03
2024-01-20T22:47:06.095Z,14.00
2024-01-20T22:49:34.647Z,15.90
2024-01-20T22:52:01.572Z,15.27
2024-01-20T22:54:29.328Z,15.00
2024-01-20T22:56:56.239Z,15.33
2024-01-20T22:59:23.136Z,14.57
2024-01-20T23:01:49.859Z,14.83
2024-01-20T23:04:16.744Z,15.70
2024-01-20T23:06:43.736Z,15.73
2024-01-20T23:09:11.476Z,16.37
2024-01-20T23:11:38.318Z,15.10
2024-01-20T23:14:05.136Z,16.47
2024-01-20T23:16:31.932Z,14.07
2024-01-20T23:18:59.050Z,14.57
2024-01-20T23:21:26.128Z,12.67
2024-01-20T23:23:53.048Z,15.97
2024-01-20T23:26:19.811Z,14.07
2024-01-20T23:28:46.483Z,14.17
2024-01-20T23:31:13.266Z,15.50
2024-01-20T23:33:40.586Z,16.13
2024-01-20T23:36:10.423Z,15.30
2024-01-20T23:38:37.285Z,15.57
2024-01-20T23:41:04.113Z,18.40
2024-01-20T23:43:30.954Z,15.97
2024-01-20T23:45:58.364Z,14.83
2024-01-20T23:48:25.198Z,14.50
2024-01-20T23:50:52.078Z,14.07
2024-01-20T23:53:19.066Z,14.13
2024-01-20T23:55:48.654Z,15.40
2024-01-20T23:58:15.481Z,15.47
